Time;durP1;ratioP1;P1;durP2;ratioP2;P2;SDS_P1;SDS_P2;PMS_P1;PMS_P2;Temp;Humidity;BMP_temperature;BMP_pressure;BME280_temperature;BME280_humidity;BME280_pressure;Samples;Min_cycle;Max_cycle;Signal;HPM_P1;HPM_P2
2021/10/05 00:01:08;;;;;;;0.95;0.93;;;;;;;;;;10190357;28;20034;-64
2021/10/05 00:06:05;;;;;;;4.25;1.65;;;;;;;;;;10198247;28;20497;-63
2021/10/05 00:11:03;;;;;;;1.40;1.13;;;;;;;;;;10209646;28;20763;-62
2021/10/05 00:16:00;;;;;;;0.60;0.57;;;;;;;;;;10199470;28;20382;-63
2021/10/05 00:20:58;;;;;;;0.83;0.57;;;;;;;;;;10212144;28;20504;-63
2021/10/05 00:25:56;;;;;;;2.63;0.77;;;;;;;;;;10202920;28;20060;-64
2021/10/05 00:30:53;;;;;;;1.13;0.60;;;;;;;;;;10209494;28;20770;-63
2021/10/05 00:35:50;;;;;;;1.30;1.20;;;;;;;;;;10207852;28;20019;-63
2021/10/05 00:40:48;;;;;;;3.73;1.43;;;;;;;;;;10192630;28;20170;-63
2021/10/05 00:45:45;;;;;;;2.93;0.83;;;;;;;;;;10199635;28;20035;-63
2021/10/05 00:50:44;;;;;;;4.33;1.83;;;;;;;;;;10200653;28;20037;-63
2021/10/05 00:55:42;;;;;;;2.10;1.98;;;;;;;;;;10198651;28;20081;-63
2021/10/05 01:00:39;;;;;;;2.97;1.77;;;;;;;;;;10213264;28;20122;-63
2021/10/05 01:05:37;;;;;;;2.33;1.87;;;;;;;;;;10189425;28;20512;-63
2021/10/05 01:10:35;;;;;;;3.00;2.67;;;;;;;;;;10191421;28;20452;-63
2021/10/05 01:15:32;;;;;;;3.58;2.92;;;;;;;;;;10212954;28;20101;-63
2021/10/05 01:20:30;;;;;;;3.87;2.40;;;;;;;;;;10201169;28;20090;-63
2021/10/05 01:25:27;;;;;;;4.60;2.40;;;;;;;;;;10194302;28;20114;-63
2021/10/05 01:30:24;;;;;;;6.07;2.30;;;;;;;;;;10200927;28;20518;-63
2021/10/05 01:35:22;;;;;;;2.43;1.70;;;;;;;;;;10208194;28;20076;-63
2021/10/05 01:40:19;;;;;;;3.30;2.27;;;;;;;;;;10197292;28;20031;-62
2021/10/05 01:45:17;;;;;;;4.07;2.53;;;;;;;;;;10188679;28;20051;-62
2021/10/05 01:50:14;;;;;;;6.00;2.27;;;;;;;;;;10199642;28;20142;-62
2021/10/05 01:55:11;;;;;;;1.27;1.17;;;;;;;;;;10199804;28;20042;-62
2021/10/05 02:00:09;;;;;;;1.57;1.43;;;;;;;;;;10221573;28;20053;-62
2021/10/05 02:05:07;;;;;;;2.77;1.93;;;;;;;;;;10207815;28;20146;-62
2021/10/05 02:10:05;;;;;;;2.40;1.93;;;;;;;;;;10208018;28;20035;-62
2021/10/05 02:15:02;;;;;;;;;;;;;;;;;;10183802;28;20054;-62
2021/10/05 02:20:00;;;;;;;3.50;2.50;;;;;;;;;;10190079;28;19924;-63
2021/10/05 02:24:57;;;;;;;1.97;1.53;;;;;;;;;;10196365;28;20448;-62
2021/10/05 02:29:55;;;;;;;5.13;3.83;;;;;;;;;;10211085;28;20046;-62
2021/10/05 02:34:52;;;;;;;6.17;3.67;;;;;;;;;;10216615;28;20049;-63
2021/10/05 02:39:49;;;;;;;4.67;2.70;;;;;;;;;;10210597;28;20038;-63
2021/10/05 02:44:47;;;;;;;1.77;1.63;;;;;;;;;;10192179;28;20097;-62
2021/10/05 02:49:44;;;;;;;3.47;2.57;;;;;;;;;;10229982;28;20038;-62
2021/10/05 02:54:42;;;;;;;5.07;3.07;;;;;;;;;;10236202;28;20043;-62
2021/10/05 02:59:40;;;;;;;3.03;2.00;;;;;;;;;;10227379;28;20057;-62
2021/10/05 03:04:38;;;;;;;6.10;4.00;;;;;;;;;;10230498;28;20510;-62
2021/10/05 03:09:35;;;;;;;6.00;4.63;;;;;;;;;;10226546;28;20281;-62
2021/10/05 03:14:33;;;;;;;5.83;4.33;;;;;;;;;;10224687;28;20038;-62
2021/10/05 03:19:30;;;;;;;5.70;3.63;;;;;;;;;;10222531;28;20407;-62
2021/10/05 03:24:27;;;;;;;4.03;3.53;;;;;;;;;;10233577;28;20373;-63
2021/10/05 03:29:25;;;;;;;4.87;3.07;;;;;;;;;;10225626;28;20482;-62
2021/10/05 03:34:22;;;;;;;4.67;3.53;;;;;;;;;;10245672;28;20045;-63
2021/10/05 03:39:20;;;;;;;3.03;2.37;;;;;;;;;;10245546;28;20042;-62
2021/10/05 03:44:17;;;;;;;3.63;2.77;;;;;;;;;;10223910;28;20086;-62
2021/10/05 03:49:15;;;;;;;4.80;2.97;;;;;;;;;;10242181;28;20044;-62
2021/10/05 03:54:12;;;;;;;2.57;1.83;;;;;;;;;;10224799;28;20088;-62
2021/10/05 03:59:15;;;;;;;4.47;2.17;;;;;;;;;;10223441;28;20034;-63
2021/10/05 04:04:13;;;;;;;3.92;2.17;;;;;;;;;;10207609;28;20034;-63
2021/10/05 04:09:10;;;;;;;5.68;4.22;;;;;;;;;;10233885;28;20050;-62
2021/10/05 04:14:08;;;;;;;8.63;4.80;;;;;;;;;;10232304;28;20118;-63
2021/10/05 04:19:05;;;;;;;7.20;3.87;;;;;;;;;;10223309;28;20412;-62
2021/10/05 04:24:02;;;;;;;7.33;4.47;;;;;;;;;;10223192;28;20039;-62
2021/10/05 04:29:00;;;;;;;3.10;1.43;;;;;;;;;;10209361;28;20038;-62
2021/10/05 04:33:57;;;;;;;4.53;2.20;;;;;;;;;;10190764;23;20081;-63
2021/10/05 04:38:55;;;;;;;3.77;2.30;;;;;;;;;;10223477;28;20062;-63
2021/10/05 04:43:52;;;;;;;5.10;2.93;;;;;;;;;;10211408;28;20046;-61
2021/10/05 04:48:49;;;;;;;6.17;2.83;;;;;;;;;;10189838;28;20193;-64
2021/10/05 04:53:47;;;;;;;2.73;1.87;;;;;;;;;;10191402;28;20046;-63
2021/10/05 04:58:44;;;;;;;3.23;2.23;;;;;;;;;;10195674;28;20038;-61
2021/10/05 05:03:42;;;;;;;2.77;2.30;;;;;;;;;;10172362;28;20034;-60
2021/10/05 05:08:39;;;;;;;3.23;2.10;;;;;;;;;;10186320;28;20042;-64
2021/10/05 05:13:36;;;;;;;0.90;0.83;;;;;;;;;;10166135;28;20074;-62
2021/10/05 05:18:34;;;;;;;2.90;2.10;;;;;;;;;;10193121;28;20436;-61
2021/10/05 05:23:31;;;;;;;3.20;2.63;;;;;;;;;;10184893;28;20034;-62
2021/10/05 05:28:29;;;;;;;3.17;1.87;;;;;;;;;;10178665;28;20385;-60
2021/10/05 05:33:28;;;;;;;1.80;1.40;;;;;;;;;;10163406;28;20105;-61
2021/10/05 05:38:26;;;;;;;3.33;2.03;;;;;;;;;;10174532;28;20373;-59
2021/10/05 05:43:23;;;;;;;2.33;1.57;;;;;;;;;;10196830;28;20034;-61
2021/10/05 05:48:21;;;;;;;3.60;1.90;;;;;;;;;;10196924;28;20065;-60
2021/10/05 05:53:18;;;;;;;2.93;2.00;;;;;;;;;;10204507;28;20038;-61
2021/10/05 05:58:17;;;;;;;6.13;2.67;;;;;;;;;;10198714;28;20436;-58
2021/10/05 06:03:14;;;;;;;;;;;;;;;;;;10199273;28;20038;-60
2021/10/05 06:08:11;;;;;;;5.90;3.13;;;;;;;;;;10194981;28;19960;-62
2021/10/05 06:13:09;;;;;;;5.70;3.47;;;;;;;;;;10211724;28;20085;-60
2021/10/05 06:18:06;;;;;;;7.23;3.73;;;;;;;;;;10193729;28;20057;-60
2021/10/05 06:23:04;;;;;;;5.10;3.10;;;;;;;;;;10197202;28;20031;-61
2021/10/05 06:28:01;;;;;;;6.10;3.50;;;;;;;;;;10202070;28;20046;-61
2021/10/05 06:32:58;;;;;;;2.13;1.87;;;;;;;;;;10194184;28;20046;-61
2021/10/05 06:37:57;;;;;;;2.67;2.00;;;;;;;;;;10209287;28;20566;-59
2021/10/05 06:42:54;;;;;;;4.93;2.85;;;;;;;;;;10212102;28;20031;-60
2021/10/05 06:47:52;;;;;;;5.20;3.47;;;;;;;;;;10181508;28;20101;-60
2021/10/05 06:52:49;;;;;;;8.60;3.73;;;;;;;;;;10189535;28;20062;-60
2021/10/05 06:57:47;;;;;;;10.17;4.20;;;;;;;;;;10200828;28;20038;-61
2021/10/05 07:02:45;;;;;;;4.33;2.07;;;;;;;;;;10183471;28;20676;-62
2021/10/05 07:07:44;;;;;;;3.35;2.22;;;;;;;;;;10201826;28;20058;-62
2021/10/05 07:12:41;;;;;;;5.55;2.92;;;;;;;;;;10212637;28;20046;-63
2021/10/05 07:17:39;;;;;;;3.83;2.67;;;;;;;;;;10191502;28;20042;-61
2021/10/05 07:22:36;;;;;;;4.80;2.73;;;;;;;;;;10203167;28;20120;-63
2021/10/05 07:27:34;;;;;;;2.90;2.60;;;;;;;;;;10205907;28;20061;-63
2021/10/05 07:32:32;;;;;;;6.80;2.88;;;;;;;;;;10187732;28;20041;-62
2021/10/05 07:37:30;;;;;;;8.13;3.40;;;;;;;;;;10194383;28;20093;-63
2021/10/05 07:42:27;;;;;;;6.17;3.93;;;;;;;;;;10188701;28;21014;-61
2021/10/05 07:47:25;;;;;;;2.73;1.50;;;;;;;;;;10175142;28;20043;-62
2021/10/05 07:52:22;;;;;;;6.53;3.33;;;;;;;;;;10201222;28;20034;-61
2021/10/05 07:57:20;;;;;;;3.47;2.87;;;;;;;;;;10200055;28;20518;-61
2021/10/05 08:02:18;;;;;;;4.07;2.47;;;;;;;;;;10196207;28;20045;-61
2021/10/05 08:07:15;;;;;;;4.68;3.30;;;;;;;;;;10204732;28;20052;-60
2021/10/05 08:12:12;;;;;;;4.83;3.50;;;;;;;;;;10196378;28;20379;-62
2021/10/05 08:17:11;;;;;;;5.97;3.27;;;;;;;;;;10198585;28;20042;-62
2021/10/05 08:22:09;;;;;;;;;;;;;;;;;;10197319;28;20514;-63
2021/10/05 08:27:06;;;;;;;3.72;2.95;;;;;;;;;;10191897;28;20028;-61
2021/10/05 08:32:05;;;;;;;6.93;3.50;;;;;;;;;;10184964;28;20452;-62
2021/10/05 08:37:02;;;;;;;5.20;3.28;;;;;;;;;;10183964;28;20150;-63
2021/10/05 08:42:01;;;;;;;3.87;3.00;;;;;;;;;;10204336;28;20370;-62
2021/10/05 08:46:58;;;;;;;5.25;3.00;;;;;;;;;;10189413;28;20039;-62
2021/10/05 08:51:56;;;;;;;9.83;3.47;;;;;;;;;;10179349;28;20051;-61
2021/10/05 08:56:53;;;;;;;5.53;3.30;;;;;;;;;;10176154;28;20050;-62
2021/10/05 09:01:50;;;;;;;4.33;2.90;;;;;;;;;;10186194;28;20050;-63
2021/10/05 09:06:51;;;;;;;9.80;2.43;;;;;;;;;;10191685;28;20068;-63
2021/10/05 09:11:52;;;;;;;3.33;2.35;;;;;;;;;;10215744;28;20039;-62
2021/10/05 09:16:57;;;;;;;5.63;3.15;;;;;;;;;;10207699;28;20065;-63
2021/10/05 09:21:54;;;;;;;6.13;3.28;;;;;;;;;;10197726;28;20049;-62
2021/10/05 09:26:56;;;;;;;6.67;3.40;;;;;;;;;;10210135;28;20042;-63
2021/10/05 09:31:55;;;;;;;4.97;3.15;;;;;;;;;;10198486;28;20046;-63
2021/10/05 09:36:53;;;;;;;4.82;2.55;;;;;;;;;;10200829;28;20051;-63
2021/10/05 09:41:54;;;;;;;3.63;2.80;;;;;;;;;;10201967;28;20526;-63
2021/10/05 09:46:52;;;;;;;4.00;2.67;;;;;;;;;;10177739;28;20069;-63
2021/10/05 09:52:00;;;;;;;10.93;2.90;;;;;;;;;;10209760;28;20494;-63
2021/10/05 09:56:57;;;;;;;3.85;2.85;;;;;;;;;;10211605;28;20046;-62
2021/10/05 10:01:57;;;;;;;3.60;2.70;;;;;;;;;;10226604;28;20105;-64
2021/10/05 10:06:54;;;;;;;3.05;2.20;;;;;;;;;;10198360;28;20508;-63
2021/10/05 10:11:52;;;;;;;4.87;2.73;;;;;;;;;;10206416;28;20077;-64
2021/10/05 10:16:49;;;;;;;3.43;1.90;;;;;;;;;;10211543;28;20026;-62
2021/10/05 10:21:47;;;;;;;5.00;2.47;;;;;;;;;;10186964;28;20113;-62
2021/10/05 10:26:56;;;;;;;2.70;2.00;;;;;;;;;;10217431;28;20022;-63
2021/10/05 10:31:53;;;;;;;3.75;1.65;;;;;;;;;;10203639;28;20070;-63
2021/10/05 10:36:51;;;;;;;3.67;2.40;;;;;;;;;;10200910;28;20042;-63
2021/10/05 10:41:51;;;;;;;2.37;1.70;;;;;;;;;;10210946;28;20033;-64
2021/10/05 10:46:48;;;;;;;1.63;1.52;;;;;;;;;;10193992;28;20025;-63
2021/10/05 10:51:48;;;;;;;3.07;1.50;;;;;;;;;;10178244;28;20026;-63
2021/10/05 10:56:46;;;;;;;4.05;1.77;;;;;;;;;;10176993;28;20106;-62
2021/10/05 11:01:45;;;;;;;;;;;;;;;;;;10190795;28;20026;-63
2021/10/05 11:06:50;;;;;;;3.23;1.80;;;;;;;;;;10201658;28;20008;-62
2021/10/05 11:11:49;;;;;;;1.27;0.95;;;;;;;;;;10211169;28;20277;-62
2021/10/05 11:16:52;;;;;;;1.00;0.68;;;;;;;;;;10212871;28;20042;-62
2021/10/05 11:21:49;;;;;;;2.25;1.30;;;;;;;;;;10189676;28;20026;-64
2021/10/05 11:26:50;;;;;;;3.87;1.93;;;;;;;;;;10209106;28;20034;-62
2021/10/05 11:31:48;;;;;;;1.85;1.30;;;;;;;;;;10196442;28;20045;-63
2021/10/05 11:36:47;;;;;;;2.03;1.40;;;;;;;;;;10190576;28;20080;-62
2021/10/05 11:41:45;;;;;;;2.67;1.73;;;;;;;;;;10209614;28;20098;-63
2021/10/05 11:46:42;;;;;;;;;;;;;;;;;;10220574;28;20129;-63
2021/10/05 11:51:43;;;;;;;1.27;1.17;;;;;;;;;;10218210;28;20017;-61
2021/10/05 11:56:40;;;;;;;1.52;1.00;;;;;;;;;;10210460;28;20403;-60
2021/10/05 12:01:37;;;;;;;1.93;1.30;;;;;;;;;;10206892;28;20034;-61
2021/10/05 12:06:39;;;;;;;1.23;0.90;;;;;;;;;;10202810;28;20034;-62
2021/10/05 12:11:44;;;;;;;2.38;1.80;;;;;;;;;;10207866;28;20073;-61
2021/10/05 12:16:52;;;;;;;1.00;0.98;;;;;;;;;;10207430;28;20508;-62
2021/10/05 12:21:50;;;;;;;1.48;0.85;;;;;;;;;;10202640;28;20038;-62
2021/10/05 12:26:49;;;;;;;1.98;1.35;;;;;;;;;;10192381;28;20041;-61
2021/10/05 12:31:53;;;;;;;1.40;1.13;;;;;;;;;;10190772;28;20031;-60
2021/10/05 12:36:57;;;;;;;1.65;1.20;;;;;;;;;;10201151;28;20042;-61
2021/10/05 12:41:58;;;;;;;1.63;1.05;;;;;;;;;;10197731;28;20034;-60
2021/10/05 12:46:58;;;;;;;2.20;0.95;;;;;;;;;;10196396;28;20104;-61
2021/10/05 12:51:55;;;;;;;2.67;1.52;;;;;;;;;;10212654;28;20053;-61
2021/10/05 12:56:52;;;;;;;1.57;0.77;;;;;;;;;;10204311;28;20392;-63
2021/10/05 13:01:50;;;;;;;2.80;1.30;;;;;;;;;;10187150;28;20038;-60
2021/10/05 13:06:47;;;;;;;0.70;0.70;;;;;;;;;;10192477;28;20046;-60
2021/10/05 13:11:45;;;;;;;1.57;0.97;;;;;;;;;;10190557;28;20034;-61
2021/10/05 13:16:42;;;;;;;1.70;0.90;;;;;;;;;;10190334;28;20039;-60
2021/10/05 13:21:40;;;;;;;1.27;0.90;;;;;;;;;;10180317;28;20038;-60
2021/10/05 13:26:39;;;;;;;1.10;0.80;;;;;;;;;;10203053;28;20518;-60
2021/10/05 13:31:36;;;;;;;1.17;1.08;;;;;;;;;;10199104;28;20268;-60
2021/10/05 13:36:33;;;;;;;1.60;1.00;;;;;;;;;;10192403;28;20412;-63
2021/10/05 13:41:31;;;;;;;1.70;1.07;;;;;;;;;;10198342;28;20070;-60
2021/10/05 13:46:28;;;;;;;1.97;1.60;;;;;;;;;;10197687;28;20034;-60
2021/10/05 13:51:25;;;;;;;1.30;1.17;;;;;;;;;;10188734;28;20069;-60
2021/10/05 13:56:25;;;;;;;2.00;1.30;;;;;;;;;;10197787;28;20057;-60
2021/10/05 14:01:24;;;;;;;1.40;0.80;;;;;;;;;;10199709;28;20056;-60
2021/10/05 14:06:21;;;;;;;1.65;0.93;;;;;;;;;;10208434;28;20034;-61
2021/10/05 14:11:19;;;;;;;0.93;0.83;;;;;;;;;;10209130;28;20042;-62
2021/10/05 14:16:16;;;;;;;2.03;1.20;;;;;;;;;;10202421;28;20038;-62
2021/10/05 14:21:17;;;;;;;1.13;0.80;;;;;;;;;;10203844;28;20042;-62
2021/10/05 14:26:15;;;;;;;2.42;1.23;;;;;;;;;;10209833;28;20058;-62
2021/10/05 14:31:12;;;;;;;2.17;0.90;;;;;;;;;;10222530;28;20039;-62
2021/10/05 14:36:10;;;;;;;0.70;0.60;;;;;;;;;;10212552;28;20643;-62
2021/10/05 14:41:07;;;;;;;4.57;0.97;;;;;;;;;;10199510;28;20145;-61
2021/10/05 14:46:05;;;;;;;1.00;0.70;;;;;;;;;;10182259;28;20074;-61
2021/10/05 14:51:02;;;;;;;0.97;0.63;;;;;;;;;;10207494;28;20034;-61
2021/10/05 14:56:00;;;;;;;1.37;0.80;;;;;;;;;;10208027;28;20041;-61
2021/10/05 15:00:57;;;;;;;1.20;0.97;;;;;;;;;;10211969;28;20042;-61
2021/10/05 15:05:55;;;;;;;2.00;1.05;;;;;;;;;;10198616;28;20455;-61
2021/10/05 15:10:52;;;;;;;1.93;1.30;;;;;;;;;;10211038;28;20124;-61
2021/10/05 15:15:49;;;;;;;1.13;1.03;;;;;;;;;;10200872;28;20049;-61
2021/10/05 15:20:47;;;;;;;0.93;0.77;;;;;;;;;;10201854;28;20052;-60
2021/10/05 15:25:44;;;;;;;0.93;0.67;;;;;;;;;;10208151;28;20042;-61
2021/10/05 15:30:42;;;;;;;1.50;0.63;;;;;;;;;;10213029;28;20038;-61
2021/10/05 15:35:39;;;;;;;1.67;1.10;;;;;;;;;;10209335;28;20037;-62
2021/10/05 15:40:40;;;;;;;1.30;0.73;;;;;;;;;;10211269;28;20073;-61
2021/10/05 15:45:38;;;;;;;0.98;0.80;;;;;;;;;;10193475;28;20038;-60
2021/10/05 15:50:59;;;;;;;1.07;1.00;;;;;;;;;;10189880;28;20038;-60
2021/10/05 15:55:58;;;;;;;0.88;0.65;;;;;;;;;;10202756;28;20293;-59
2021/10/05 16:00:56;;;;;;;0.68;0.45;;;;;;;;;;10212858;28;20049;-60
2021/10/05 16:05:54;;;;;;;1.70;1.07;;;;;;;;;;10201449;28;20050;-59
2021/10/05 16:10:52;;;;;;;0.52;0.52;;;;;;;;;;10207169;28;20359;-59
2021/10/05 16:15:49;;;;;;;0.97;0.40;;;;;;;;;;10205999;28;20488;-60
2021/10/05 16:20:47;;;;;;;1.30;0.70;;;;;;;;;;10194110;28;20070;-60
2021/10/05 16:25:44;;;;;;;0.53;0.53;;;;;;;;;;10217329;28;20030;-58
2021/10/05 16:30:41;;;;;;;1.27;0.70;;;;;;;;;;10194015;28;20133;-60
2021/10/05 16:35:39;;;;;;;0.87;0.80;;;;;;;;;;10205899;28;20263;-60
2021/10/05 16:40:36;;;;;;;0.63;0.50;;;;;;;;;;10207362;28;20065;-60
2021/10/05 16:45:34;;;;;;;1.23;0.67;;;;;;;;;;10194526;28;20022;-58
2021/10/05 16:50:34;;;;;;;0.23;0.23;;;;;;;;;;10214966;28;20031;-60
2021/10/05 16:55:31;;;;;;;0.38;0.38;;;;;;;;;;10197836;28;20403;-60
2021/10/05 17:00:29;;;;;;;0.33;0.33;;;;;;;;;;10198570;28;20030;-61
2021/10/05 17:05:26;;;;;;;0.20;0.20;;;;;;;;;;10188879;28;20041;-60
2021/10/05 17:10:24;;;;;;;0.63;0.63;;;;;;;;;;10205066;28;20057;-61
2021/10/05 17:15:22;;;;;;;1.20;0.70;;;;;;;;;;10205170;28;20129;-61
2021/10/05 17:20:19;;;;;;;1.20;0.80;;;;;;;;;;10207083;28;20142;-61
2021/10/05 17:25:16;;;;;;;2.70;1.07;;;;;;;;;;10190454;28;20069;-61
2021/10/05 17:30:14;;;;;;;1.20;1.10;;;;;;;;;;10196280;28;20042;-61
2021/10/05 17:35:11;;;;;;;2.90;1.10;;;;;;;;;;10210772;28;20539;-62
2021/10/05 17:40:09;;;;;;;1.37;0.80;;;;;;;;;;10201954;28;20046;-61
2021/10/05 17:45:08;;;;;;;0.70;0.70;;;;;;;;;;10197950;28;20452;-61
2021/10/05 17:50:08;;;;;;;1.70;1.00;;;;;;;;;;10180077;23;20636;-64
2021/10/05 17:55:06;;;;;;;0.98;0.65;;;;;;;;;;10212691;28;20263;-63
2021/10/05 18:00:03;;;;;;;;;;;;;;;;;;10213152;28;20129;-63
2021/10/05 18:05:09;;;;;;;1.30;0.98;;;;;;;;;;10241059;28;20362;-64
2021/10/05 18:10:10;;;;;;;1.20;0.85;;;;;;;;;;10227810;28;20038;-63
2021/10/05 18:15:09;;;;;;;3.42;0.80;;;;;;;;;;10217808;28;20132;-64
2021/10/05 18:20:07;;;;;;;2.05;1.00;;;;;;;;;;10235705;28;20133;-64
2021/10/05 18:25:06;;;;;;;2.20;1.20;;;;;;;;;;10229991;23;20477;-60
2021/10/05 18:30:04;;;;;;;1.40;1.30;;;;;;;;;;10204886;28;20065;-60
2021/10/05 18:35:01;;;;;;;0.80;0.80;;;;;;;;;;10195411;28;20129;-60
2021/10/05 18:39:59;;;;;;;1.47;0.97;;;;;;;;;;10196131;28;20038;-61
2021/10/05 18:44:56;;;;;;;1.30;0.97;;;;;;;;;;10195860;28;20039;-59
2021/10/05 18:49:54;;;;;;;1.30;1.00;;;;;;;;;;10206155;28;20041;-60
2021/10/05 18:54:53;;;;;;;1.65;1.30;;;;;;;;;;10199964;28;20045;-61
2021/10/05 18:59:51;;;;;;;1.73;1.20;;;;;;;;;;10189388;28;20061;-59
2021/10/05 19:04:48;;;;;;;1.87;1.30;;;;;;;;;;10196676;28;20045;-62
2021/10/05 19:09:46;;;;;;;2.47;1.43;;;;;;;;;;10196620;28;20769;-60
2021/10/05 19:14:43;;;;;;;4.40;1.63;;;;;;;;;;10210687;28;20058;-61
2021/10/05 19:19:40;;;;;;;7.80;2.20;;;;;;;;;;10205079;28;20034;-61
2021/10/05 19:24:38;;;;;;;3.83;2.40;;;;;;;;;;10207768;28;20038;-61
2021/10/05 19:29:36;;;;;;;6.30;1.77;;;;;;;;;;10202228;28;20563;-61
2021/10/05 19:34:33;;;;;;;7.97;6.10;;;;;;;;;;10219343;28;20044;-61
2021/10/05 19:39:31;;;;;;;15.97;6.07;;;;;;;;;;10203000;28;20530;-61
2021/10/05 19:44:28;;;;;;;3.97;3.67;;;;;;;;;;10208847;28;20062;-61
2021/10/05 19:49:28;;;;;;;8.07;4.18;;;;;;;;;;10204102;28;20533;-59
2021/10/05 19:54:26;;;;;;;1.53;1.20;;;;;;;;;;10198622;28;20071;-61
2021/10/05 19:59:24;;;;;;;2.50;2.30;;;;;;;;;;10168813;28;20069;-61
2021/10/05 20:04:22;;;;;;;6.57;5.40;;;;;;;;;;10196473;28;20126;-61
2021/10/05 20:09:19;;;;;;;5.23;4.20;;;;;;;;;;10189422;28;20041;-61
2021/10/05 20:14:16;;;;;;;2.00;1.73;;;;;;;;;;10203492;28;20153;-61
2021/10/05 20:19:14;;;;;;;2.87;1.67;;;;;;;;;;10205941;28;20543;-60
2021/10/05 20:24:11;;;;;;;1.27;1.17;;;;;;;;;;10204517;28;20077;-61
2021/10/05 20:29:09;;;;;;;2.57;1.30;;;;;;;;;;10201489;28;20555;-62
2021/10/05 20:34:06;;;;;;;2.37;1.77;;;;;;;;;;10193325;28;20125;-60
2021/10/05 20:39:05;;;;;;;1.33;0.93;;;;;;;;;;10199387;28;20042;-61
2021/10/05 20:44:02;;;;;;;3.72;1.65;;;;;;;;;;10206328;28;20049;-62
2021/10/05 20:49:02;;;;;;;1.50;1.40;;;;;;;;;;10201242;28;20104;-63
2021/10/05 20:53:59;;;;;;;3.05;1.80;;;;;;;;;;10204975;28;20578;-62
2021/10/05 20:58:57;;;;;;;1.57;1.40;;;;;;;;;;10201080;28;20050;-60
2021/10/05 21:03:54;;;;;;;2.30;1.50;;;;;;;;;;10212830;28;20046;-62
2021/10/05 21:08:52;;;;;;;6.27;2.70;;;;;;;;;;10180909;28;20395;-61
2021/10/05 21:13:49;;;;;;;8.33;2.10;;;;;;;;;;10198336;28;20202;-61
2021/10/05 21:18:47;;;;;;;;;;;;;;;;;;10187274;28;20058;-61
2021/10/05 21:23:45;;;;;;;1.90;1.20;;;;;;;;;;10193974;28;19930;-59
2021/10/05 21:28:43;;;;;;;1.83;1.50;;;;;;;;;;10197494;28;20042;-60
2021/10/05 21:33:40;;;;;;;2.03;1.40;;;;;;;;;;10206546;28;20050;-61
2021/10/05 21:38:37;;;;;;;2.60;1.50;;;;;;;;;;10204192;28;20403;-62
2021/10/05 21:43:35;;;;;;;1.93;1.57;;;;;;;;;;10205253;28;20019;-60
2021/10/05 21:48:33;;;;;;;4.57;1.57;;;;;;;;;;10204024;28;20030;-61
2021/10/05 21:53:31;;;;;;;2.47;1.60;;;;;;;;;;10194509;28;20281;-65
2021/10/05 21:58:28;;;;;;;;;;;;;;;;;;10209247;28;20032;-63
2021/10/05 22:03:26;;;;;;;1.70;1.33;;;;;;;;;;10196964;28;19905;-63
2021/10/05 22:08:23;;;;;;;3.90;2.20;;;;;;;;;;10204057;28;20476;-62
2021/10/05 22:13:20;;;;;;;4.97;3.03;;;;;;;;;;10196089;28;20436;-64
2021/10/05 22:18:18;;;;;;;1.35;0.95;;;;;;;;;;10194662;28;20128;-64
2021/10/05 22:23:16;;;;;;;3.50;1.97;;;;;;;;;;10203646;28;20066;-63
2021/10/05 22:28:13;;;;;;;1.53;1.40;;;;;;;;;;10194858;28;20042;-63
2021/10/05 22:33:11;;;;;;;4.63;2.23;;;;;;;;;;10207573;28;20041;-63
2021/10/05 22:38:08;;;;;;;3.97;2.03;;;;;;;;;;10196418;28;20552;-64
2021/10/05 22:43:05;;;;;;;3.90;1.73;;;;;;;;;;10194770;28;20053;-63
2021/10/05 22:48:03;;;;;;;2.97;1.93;;;;;;;;;;10211763;28;20046;-63
2021/10/05 22:53:00;;;;;;;3.43;2.00;;;;;;;;;;10203215;28;20495;-62
2021/10/05 22:57:58;;;;;;;6.33;1.93;;;;;;;;;;10211412;28;20039;-61
2021/10/05 23:02:55;;;;;;;2.33;2.13;;;;;;;;;;10215138;28;20050;-62
2021/10/05 23:07:52;;;;;;;6.77;2.80;;;;;;;;;;10200710;28;20035;-62
2021/10/05 23:12:50;;;;;;;3.90;2.63;;;;;;;;;;10209043;28;20093;-61
2021/10/05 23:17:50;;;;;;;3.30;1.77;;;;;;;;;;10210595;28;20034;-63
2021/10/05 23:22:48;;;;;;;3.63;2.20;;;;;;;;;;10198615;28;20045;-63
2021/10/05 23:27:45;;;;;;;3.00;1.77;;;;;;;;;;10217775;28;20271;-64
2021/10/05 23:32:42;;;;;;;3.20;2.43;;;;;;;;;;10208815;28;20035;-64
2021/10/05 23:37:40;;;;;;;2.70;1.67;;;;;;;;;;10203170;28;20046;-64
2021/10/05 23:42:38;;;;;;;6.05;2.05;;;;;;;;;;10205802;28;20030;-64
2021/10/05 23:47:35;;;;;;;3.83;2.20;;;;;;;;;;10206300;28;20034;-64
2021/10/05 23:52:33;;;;;;;3.90;2.10;;;;;;;;;;10208239;28;20604;-64
2021/10/05 23:57:30;;;;;;;1.93;1.77;;;;;;;;;;10214665;28;20130;-62
